Meteo Giornale » Osservazioni meteo Stati Uniti (USA) » Lancaster General William J Fox Airfield
ore: 18:56 - Osservazioni Meteo Lancaster General William J Fox Airfield
Lat. 34° 44' N Lon. 118° 13' W Alt. 715 metri s.l.m.
26 °C
Sereno
Temp. 24 Ore
21 °C
31 °C
Sud-Ovest
33.3 Km/h
Dew point 5 °C
Umidità 25 %
Visibilità 10 Km
Il sole sorge alle ore 06:25
Il sole tramonta alle ore 19:20
| Data e Ora | Cielo e Fenomeni | T °C | DP °C | Um. % | Pres. hPa | Vis. km | Vento km/h | |
|---|---|---|---|---|---|---|---|---|
| Oggi h: 18:56 | Sereno | 26 | 5 | 25 | 1012 | 10 | SO 33.3 | |
| Oggi h: 17:56 | Sereno | 28 | 6 | 24 | 1013 | 10 | S/SO 35.2 | |
| Oggi h: 16:56 | Sereno | 29 | 7 | 25 | 1013 | 10 | SO 33.3 | |
| Oggi h: 15:56 | Sereno | 31 | 6 | 20 | 1013 | 10 | S/SO 38.8 | |
| Oggi h: 13:56 | Sereno | 31 | 1 | 14 | 1014 | 10 | SO 27.8 | |
| Oggi h: 12:56 | Sereno | 31 | 1 | 14 | 1014 | 10 | SO 27.8 | |
| Oggi h: 11:56 | Sereno | 30 | 0 | 14 | 1015 | 10 | S/SO 22.2 | |
| Oggi h: 10:56 | Sereno | 29 | 2 | 17 | 1015 | 10 | SO 16.7 | |
| Oggi h: 09:56 | Sereno | 28 | 1 | 17 | 1015 | 10 | O/SO 22.2 | |
| Oggi h: 08:56 | Sereno | 26 | 6 | 27 | 1014 | 10 | SO 18.5 | |
| Oggi h: 07:56 | Sereno | 22 | 10 | 46 | 1014 | 10 | O 14.8 | |
| Oggi h: 06:56 | Sereno | 21 | 10 | 49 | 1014 | 10 | O/NO 13 | |
| Oggi h: 05:56 | Sereno | 21 | 11 | 52 | 1014 | 10 | O/SO 16.7 | |
| Oggi h: 04:56 | Sereno | 21 | 11 | 52 | 1013 | 10 | O/SO 27.8 | |
| Oggi h: 03:56 | Sereno | 22 | 11 | 49 | 1013 | 10 | O 29.6 | |
| Oggi h: 02:56 | Sereno | 22 | 11 | 49 | 1013 | 10 | O/SO 22.2 | |
| Oggi h: 01:56 | Sereno | 23 | 12 | 49 | 1013 | 10 | SO 16.7 | |
| Oggi h: 00:56 | Sereno | 22 | 12 | 53 | 1014 | 10 | NO 7.4 | |
| Ieri h: 23:56 | Sereno | 23 | 12 | 49 | 1014 | 10 | O 9.3 | |
| Ieri h: 22:56 | Sereno | 23 | 11 | 46 | 1014 | 10 | N 0 | |
| Ieri h: 21:56 | Sereno | 24 | 11 | 43 | 1014 | 10 | O 18.5 | |
| Ieri h: 20:56 | Sereno | 26 | 11 | 39 | 1013 | 10 | O/SO 25.9 | |
| Ieri h: 19:56 | Sereno | 27 | 12 | 39 | 1012 | 10 | O/SO 22.2 | |



